sensor_id;sensor_type;location;lat;lon;timestamp;temperature;humidity
1461;DHT22;724;49.910;12.530;2023-04-24T00:01:05;8.40;99.90
1461;DHT22;724;49.910;12.530;2023-04-24T00:03:32;8.30;99.90
1461;DHT22;724;49.910;12.530;2023-04-24T00:06:00;8.30;99.90
1461;DHT22;724;49.910;12.530;2023-04-24T00:08:27;8.30;99.90
1461;DHT22;724;49.910;12.530;2023-04-24T00:10:54;8.30;99.90
1461;DHT22;724;49.910;12.530;2023-04-24T00:13:21;8.30;99.90
1461;DHT22;724;49.910;12.530;2023-04-24T00:15:49;8.20;99.90
1461;DHT22;724;49.910;12.530;2023-04-24T00:18:16;8.20;99.90
1461;DHT22;724;49.910;12.530;2023-04-24T00:20:43;8.20;99.90
1461;DHT22;724;49.910;12.530;2023-04-24T00:23:10;8.20;99.90
1461;DHT22;724;49.910;12.530;2023-04-24T00:25:36;8.20;99.90
1461;DHT22;724;49.910;12.530;2023-04-24T00:28:03;8.20;99.90
1461;DHT22;724;49.910;12.530;2023-04-24T00:30:30;8.30;99.90
1461;DHT22;724;49.910;12.530;2023-04-24T00:32:58;8.30;99.90
1461;DHT22;724;49.910;12.530;2023-04-24T00:35:25;8.30;99.90
1461;DHT22;724;49.910;12.530;2023-04-24T00:37:52;8.30;99.90
1461;DHT22;724;49.910;12.530;2023-04-24T00:40:18;8.40;99.90
1461;DHT22;724;49.910;12.530;2023-04-24T00:42:45;8.40;99.90
1461;DHT22;724;49.910;12.530;2023-04-24T00:45:12;8.40;99.90
1461;DHT22;724;49.910;12.530;2023-04-24T00:47:39;8.40;99.90
1461;DHT22;724;49.910;12.530;2023-04-24T00:50:09;8.40;99.90
1461;DHT22;724;49.910;12.530;2023-04-24T00:52:36;8.40;99.90
1461;DHT22;724;49.910;12.530;2023-04-24T00:55:06;8.50;99.90
1461;DHT22;724;49.910;12.530;2023-04-24T00:57:33;8.50;99.90
1461;DHT22;724;49.910;12.530;2023-04-24T01:00:01;8.50;99.90
1461;DHT22;724;49.910;12.530;2023-04-24T01:02:31;8.40;99.90
1461;DHT22;724;49.910;12.530;2023-04-24T01:05:00;8.30;99.90
1461;DHT22;724;49.910;12.530;2023-04-24T01:07:29;8.40;99.90
1461;DHT22;724;49.910;12.530;2023-04-24T01:09:56;8.40;99.90
1461;DHT22;724;49.910;12.530;2023-04-24T01:12:22;8.40;99.90
1461;DHT22;724;49.910;12.530;2023-04-24T01:14:49;8.30;99.90
1461;DHT22;724;49.910;12.530;2023-04-24T01:17:16;8.40;99.90
1461;DHT22;724;49.910;12.530;2023-04-24T01:19:43;8.40;99.90
1461;DHT22;724;49.910;12.530;2023-04-24T01:22:13;8.50;99.90
1461;DHT22;724;49.910;12.530;2023-04-24T01:24:40;8.50;99.90
1461;DHT22;724;49.910;12.530;2023-04-24T01:27:08;8.60;99.90
1461;DHT22;724;49.910;12.530;2023-04-24T01:29:35;8.60;99.90
1461;DHT22;724;49.910;12.530;2023-04-24T01:32:03;8.50;99.90
1461;DHT22;724;49.910;12.530;2023-04-24T01:34:30;8.60;99.90
1461;DHT22;724;49.910;12.530;2023-04-24T01:36:57;8.50;99.90
1461;DHT22;724;49.910;12.530;2023-04-24T01:39:25;8.50;99.90
1461;DHT22;724;49.910;12.530;2023-04-24T01:41:54;8.40;99.90
1461;DHT22;724;49.910;12.530;2023-04-24T01:44:21;8.40;99.90
1461;DHT22;724;49.910;12.530;2023-04-24T01:46:47;8.50;99.90
1461;DHT22;724;49.910;12.530;2023-04-24T01:49:14;8.40;99.90
1461;DHT22;724;49.910;12.530;2023-04-24T01:51:41;8.40;99.90
1461;DHT22;724;49.910;12.530;2023-04-24T01:54:08;8.50;99.90
1461;DHT22;724;49.910;12.530;2023-04-24T01:56:36;8.60;99.90
1461;DHT22;724;49.910;12.530;2023-04-24T01:59:06;8.50;99.90
1461;DHT22;724;49.910;12.530;2023-04-24T02:01:34;8.60;99.90
1461;DHT22;724;49.910;12.530;2023-04-24T02:04:02;8.60;99.90
1461;DHT22;724;49.910;12.530;2023-04-24T02:06:29;8.60;99.90
1461;DHT22;724;49.910;12.530;2023-04-24T02:08:56;8.60;99.90
1461;DHT22;724;49.910;12.530;2023-04-24T02:11:23;8.60;99.90
1461;DHT22;724;49.910;12.530;2023-04-24T02:13:51;8.60;99.90
1461;DHT22;724;49.910;12.530;2023-04-24T02:16:18;8.50;99.90
1461;DHT22;724;49.910;12.530;2023-04-24T02:18:45;8.50;99.90
1461;DHT22;724;49.910;12.530;2023-04-24T02:21:11;8.50;99.90
1461;DHT22;724;49.910;12.530;2023-04-24T02:23:38;8.50;99.90
1461;DHT22;724;49.910;12.530;2023-04-24T02:26:06;8.50;99.90
1461;DHT22;724;49.910;12.530;2023-04-24T02:28:33;8.50;99.90
1461;DHT22;724;49.910;12.530;2023-04-24T02:31:01;8.50;99.90
1461;DHT22;724;49.910;12.530;2023-04-24T02:33:28;8.40;99.90
1461;DHT22;724;49.910;12.530;2023-04-24T02:35:55;8.50;99.90
1461;DHT22;724;49.910;12.530;2023-04-24T02:38:22;8.50;99.90
1461;DHT22;724;49.910;12.530;2023-04-24T02:40:49;8.50;99.90
1461;DHT22;724;49.910;12.530;2023-04-24T02:43:15;8.50;99.90
1461;DHT22;724;49.910;12.530;2023-04-24T02:45:42;8.50;99.90
1461;DHT22;724;49.910;12.530;2023-04-24T02:48:10;8.40;99.90
1461;DHT22;724;49.910;12.530;2023-04-24T02:50:37;8.40;99.90
1461;DHT22;724;49.910;12.530;2023-04-24T02:53:04;8.40;99.90
1461;DHT22;724;49.910;12.530;2023-04-24T02:55:30;8.40;99.90
1461;DHT22;724;49.910;12.530;2023-04-24T02:57:57;8.40;99.90
1461;DHT22;724;49.910;12.530;2023-04-24T03:00:24;8.30;99.90
1461;DHT22;724;49.910;12.530;2023-04-24T03:02:51;8.40;99.90
1461;DHT22;724;49.910;12.530;2023-04-24T03:05:20;8.30;99.90
1461;DHT22;724;49.910;12.530;2023-04-24T03:07:47;8.30;99.90
1461;DHT22;724;49.910;12.530;2023-04-24T03:10:14;8.30;99.90
1461;DHT22;724;49.910;12.530;2023-04-24T03:12:40;8.30;99.90
1461;DHT22;724;49.910;12.530;2023-04-24T03:15:08;8.40;99.90
1461;DHT22;724;49.910;12.530;2023-04-24T03:17:35;8.30;99.90
1461;DHT22;724;49.910;12.530;2023-04-24T03:20:02;8.30;99.90
1461;DHT22;724;49.910;12.530;2023-04-24T03:22:32;8.40;99.90
1461;DHT22;724;49.910;12.530;2023-04-24T03:24:59;8.30;99.90
1461;DHT22;724;49.910;12.530;2023-04-24T03:27:26;8.30;99.90
1461;DHT22;724;49.910;12.530;2023-04-24T03:29:52;8.30;99.90
1461;DHT22;724;49.910;12.530;2023-04-24T03:32:21;8.30;99.90
1461;DHT22;724;49.910;12.530;2023-04-24T03:34:48;8.30;99.90
1461;DHT22;724;49.910;12.530;2023-04-24T03:37:15;8.30;99.90
1461;DHT22;724;49.910;12.530;2023-04-24T03:39:43;8.20;99.90
1461;DHT22;724;49.910;12.530;2023-04-24T03:42:10;8.20;99.90
1461;DHT22;724;49.910;12.530;2023-04-24T03:44:37;8.20;99.90
1461;DHT22;724;49.910;12.530;2023-04-24T03:47:04;8.20;99.90
1461;DHT22;724;49.910;12.530;2023-04-24T03:49:31;8.20;99.90
1461;DHT22;724;49.910;12.530;2023-04-24T03:51:57;8.20;99.90
1461;DHT22;724;49.910;12.530;2023-04-24T03:54:24;8.10;99.90
1461;DHT22;724;49.910;12.530;2023-04-24T03:56:52;8.20;99.90
1461;DHT22;724;49.910;12.530;2023-04-24T03:59:19;8.20;99.90
1461;DHT22;724;49.910;12.530;2023-04-24T04:01:46;8.20;99.90
1461;DHT22;724;49.910;12.530;2023-04-24T04:04:13;8.20;99.90
1461;DHT22;724;49.910;12.530;2023-04-24T04:06:40;8.20;99.90
1461;DHT22;724;49.910;12.530;2023-04-24T04:09:07;8.20;99.90
1461;DHT22;724;49.910;12.530;2023-04-24T04:11:34;8.20;99.90
1461;DHT22;724;49.910;12.530;2023-04-24T04:14:03;8.10;99.90
1461;DHT22;724;49.910;12.530;2023-04-24T04:16:30;8.10;99.90
1461;DHT22;724;49.910;12.530;2023-04-24T04:18:57;8.10;99.90
1461;DHT22;724;49.910;12.530;2023-04-24T04:21:24;8.10;99.90
1461;DHT22;724;49.910;12.530;2023-04-24T04:23:52;8.10;99.90
1461;DHT22;724;49.910;12.530;2023-04-24T04:26:19;8.10;99.90
1461;DHT22;724;49.910;12.530;2023-04-24T04:28:46;8.20;99.90
1461;DHT22;724;49.910;12.530;2023-04-24T04:31:15;8.20;99.90
1461;DHT22;724;49.910;12.530;2023-04-24T04:33:42;8.20;99.90
1461;DHT22;724;49.910;12.530;2023-04-24T04:36:09;8.20;99.90
1461;DHT22;724;49.910;12.530;2023-04-24T04:38:36;8.20;99.90
1461;DHT22;724;49.910;12.530;2023-04-24T04:41:03;8.10;99.90
1461;DHT22;724;49.910;12.530;2023-04-24T04:43:30;8.10;99.90
1461;DHT22;724;49.910;12.530;2023-04-24T04:45:58;8.20;99.90
1461;DHT22;724;49.910;12.530;2023-04-24T04:48:27;8.20;99.90
1461;DHT22;724;49.910;12.530;2023-04-24T04:50:54;8.20;99.90
1461;DHT22;724;49.910;12.530;2023-04-24T04:53:21;8.10;99.90
1461;DHT22;724;49.910;12.530;2023-04-24T04:55:47;8.20;99.90
1461;DHT22;724;49.910;12.530;2023-04-24T04:58:14;8.20;99.90
1461;DHT22;724;49.910;12.530;2023-04-24T05:00:41;8.20;99.90
1461;DHT22;724;49.910;12.530;2023-04-24T05:03:08;8.20;99.90
1461;DHT22;724;49.910;12.530;2023-04-24T05:05:36;8.10;99.90
1461;DHT22;724;49.910;12.530;2023-04-24T05:08:06;8.10;99.90
1461;DHT22;724;49.910;12.530;2023-04-24T05:10:32;8.10;99.90
1461;DHT22;724;49.910;12.530;2023-04-24T05:12:59;8.10;99.90
1461;DHT22;724;49.910;12.530;2023-04-24T05:15:26;8.20;99.90
1461;DHT22;724;49.910;12.530;2023-04-24T05:17:53;8.20;99.90
1461;DHT22;724;49.910;12.530;2023-04-24T05:20:20;8.10;99.90
1461;DHT22;724;49.910;12.530;2023-04-24T05:22:48;8.10;99.90
1461;DHT22;724;49.910;12.530;2023-04-24T05:25:14;8.20;99.90
1461;DHT22;724;49.910;12.530;2023-04-24T05:27:41;8.20;99.90
1461;DHT22;724;49.910;12.530;2023-04-24T05:30:09;8.20;99.90
1461;DHT22;724;49.910;12.530;2023-04-24T05:32:36;8.20;99.90
1461;DHT22;724;49.910;12.530;2023-04-24T05:35:03;8.20;99.90
1461;DHT22;724;49.910;12.530;2023-04-24T05:37:29;8.30;99.90
1461;DHT22;724;49.910;12.530;2023-04-24T05:39:58;8.20;99.90
1461;DHT22;724;49.910;12.530;2023-04-24T05:42:24;8.10;99.90
1461;DHT22;724;49.910;12.530;2023-04-24T05:44:51;8.10;99.90
1461;DHT22;724;49.910;12.530;2023-04-24T05:47:20;8.00;99.90
1461;DHT22;724;49.910;12.530;2023-04-24T05:49:47;8.10;99.90
1461;DHT22;724;49.910;12.530;2023-04-24T05:52:14;8.10;99.90
1461;DHT22;724;49.910;12.530;2023-04-24T05:54:41;8.10;99.90
1461;DHT22;724;49.910;12.530;2023-04-24T05:57:09;8.20;99.90
1461;DHT22;724;49.910;12.530;2023-04-24T05:59:37;8.10;99.90
1461;DHT22;724;49.910;12.530;2023-04-24T06:02:04;8.00;99.90
1461;DHT22;724;49.910;12.530;2023-04-24T06:04:31;8.10;99.90
1461;DHT22;724;49.910;12.530;2023-04-24T06:06:59;8.20;99.90
1461;DHT22;724;49.910;12.530;2023-04-24T06:09:26;8.10;99.90
1461;DHT22;724;49.910;12.530;2023-04-24T06:11:53;8.10;99.90
1461;DHT22;724;49.910;12.530;2023-04-24T06:14:21;8.10;99.90
1461;DHT22;724;49.910;12.530;2023-04-24T06:16:48;8.10;99.90
1461;DHT22;724;49.910;12.530;2023-04-24T06:19:15;8.10;99.90
1461;DHT22;724;49.910;12.530;2023-04-24T06:21:42;8.10;99.90
1461;DHT22;724;49.910;12.530;2023-04-24T06:24:08;8.20;99.90
1461;DHT22;724;49.910;12.530;2023-04-24T06:26:36;8.20;99.90
1461;DHT22;724;49.910;12.530;2023-04-24T06:29:03;8.20;99.90
1461;DHT22;724;49.910;12.530;2023-04-24T06:31:31;8.00;99.90
1461;DHT22;724;49.910;12.530;2023-04-24T06:34:02;8.10;99.90
1461;DHT22;724;49.910;12.530;2023-04-24T06:36:29;8.10;99.90
1461;DHT22;724;49.910;12.530;2023-04-24T06:38:56;8.10;99.90
1461;DHT22;724;49.910;12.530;2023-04-24T06:41:23;8.10;99.90
1461;DHT22;724;49.910;12.530;2023-04-24T06:43:50;8.20;99.90
1461;DHT22;724;49.910;12.530;2023-04-24T06:46:17;8.30;99.90
1461;DHT22;724;49.910;12.530;2023-04-24T06:48:45;8.30;99.90
1461;DHT22;724;49.910;12.530;2023-04-24T06:51:12;8.30;99.90
1461;DHT22;724;49.910;12.530;2023-04-24T06:53:39;8.30;99.90
1461;DHT22;724;49.910;12.530;2023-04-24T06:56:05;8.30;99.90
1461;DHT22;724;49.910;12.530;2023-04-24T06:58:32;8.40;99.90
1461;DHT22;724;49.910;12.530;2023-04-24T07:00:59;8.70;99.90
1461;DHT22;724;49.910;12.530;2023-04-24T07:03:26;8.70;1.00
1461;DHT22;724;49.910;12.530;2023-04-24T07:05:54;8.80;1.00
1461;DHT22;724;49.910;12.530;2023-04-24T07:08:21;8.80;1.00
1461;DHT22;724;49.910;12.530;2023-04-24T07:10:49;8.90;99.90
1461;DHT22;724;49.910;12.530;2023-04-24T07:13:16;8.90;99.90
1461;DHT22;724;49.910;12.530;2023-04-24T07:15:43;8.90;31.70
1461;DHT22;724;49.910;12.530;2023-04-24T07:18:10;8.90;98.40
1461;DHT22;724;49.910;12.530;2023-04-24T07:20:36;9.00;1.00
1461;DHT22;724;49.910;12.530;2023-04-24T07:23:05;8.90;1.00
1461;DHT22;724;49.910;12.530;2023-04-24T07:25:31;9.00;1.00
1461;DHT22;724;49.910;12.530;2023-04-24T07:27:58;9.20;1.00
1461;DHT22;724;49.910;12.530;2023-04-24T07:30:25;9.30;99.90
1461;DHT22;724;49.910;12.530;2023-04-24T07:32:54;9.50;1.00
1461;DHT22;724;49.910;12.530;2023-04-24T07:35:21;9.70;1.00
1461;DHT22;724;49.910;12.530;2023-04-24T07:37:48;10.10;99.90
1461;DHT22;724;49.910;12.530;2023-04-24T07:40:16;10.50;1.00
1461;DHT22;724;49.910;12.530;2023-04-24T07:42:43;11.00;1.00
1461;DHT22;724;49.910;12.530;2023-04-24T07:45:10;11.30;99.90
1461;DHT22;724;49.910;12.530;2023-04-24T07:47:37;11.50;86.50
1461;DHT22;724;49.910;12.530;2023-04-24T07:50:06;11.60;1.00
1461;DHT22;724;49.910;12.530;2023-04-24T07:52:32;11.10;1.00
1461;DHT22;724;49.910;12.530;2023-04-24T07:54:59;11.00;1.00
1461;DHT22;724;49.910;12.530;2023-04-24T07:57:28;10.70;1.00
1461;DHT22;724;49.910;12.530;2023-04-24T07:59:55;10.80;1.00
1461;DHT22;724;49.910;12.530;2023-04-24T08:02:22;10.90;1.00
1461;DHT22;724;49.910;12.530;2023-04-24T08:04:51;10.80;1.00
1461;DHT22;724;49.910;12.530;2023-04-24T08:07:19;10.80;1.00
1461;DHT22;724;49.910;12.530;2023-04-24T08:09:46;10.50;1.00
1461;DHT22;724;49.910;12.530;2023-04-24T08:12:13;11.40;1.00
1461;DHT22;724;49.910;12.530;2023-04-24T08:14:41;11.10;1.00
1461;DHT22;724;49.910;12.530;2023-04-24T08:17:08;11.10;1.00
1461;DHT22;724;49.910;12.530;2023-04-24T08:19:34;11.40;1.00
1461;DHT22;724;49.910;12.530;2023-04-24T08:22:01;11.00;1.00
1461;DHT22;724;49.910;12.530;2023-04-24T08:24:29;10.70;1.00
1461;DHT22;724;49.910;12.530;2023-04-24T08:26:56;10.30;1.00
1461;DHT22;724;49.910;12.530;2023-04-24T08:29:23;10.20;1.00
1461;DHT22;724;49.910;12.530;2023-04-24T08:31:52;9.70;1.00
1461;DHT22;724;49.910;12.530;2023-04-24T08:34:19;9.70;99.90
1461;DHT22;724;49.910;12.530;2023-04-24T08:36:46;9.60;1.00
1461;DHT22;724;49.910;12.530;2023-04-24T08:39:13;9.60;1.00
1461;DHT22;724;49.910;12.530;2023-04-24T08:41:41;9.80;1.00
1461;DHT22;724;49.910;12.530;2023-04-24T08:44:11;9.60;99.90
1461;DHT22;724;49.910;12.530;2023-04-24T08:46:40;9.70;1.00
1461;DHT22;724;49.910;12.530;2023-04-24T08:49:08;9.60;1.00
1461;DHT22;724;49.910;12.530;2023-04-24T08:51:36;9.60;1.00
1461;DHT22;724;49.910;12.530;2023-04-24T08:54:04;9.50;1.00
1461;DHT22;724;49.910;12.530;2023-04-24T08:56:33;9.60;1.00
1461;DHT22;724;49.910;12.530;2023-04-24T08:59:03;9.80;99.90
1461;DHT22;724;49.910;12.530;2023-04-24T09:01:32;10.00;1.00
1461;DHT22;724;49.910;12.530;2023-04-24T09:04:01;10.10;1.00
1461;DHT22;724;49.910;12.530;2023-04-24T09:06:30;10.60;99.90
1461;DHT22;724;49.910;12.530;2023-04-24T09:09:00;11.20;1.00
1461;DHT22;724;49.910;12.530;2023-04-24T09:11:30;11.50;1.00
1461;DHT22;724;49.910;12.530;2023-04-24T09:13:58;12.20;1.00
1461;DHT22;724;49.910;12.530;2023-04-24T09:16:25;12.10;1.00
1461;DHT22;724;49.910;12.530;2023-04-24T09:18:53;11.50;99.90
1461;DHT22;724;49.910;12.530;2023-04-24T09:21:21;11.10;99.90
1461;DHT22;724;49.910;12.530;2023-04-24T09:23:59;11.60;99.90
1461;DHT22;724;49.910;12.530;2023-04-24T09:26:29;12.00;99.90
1461;DHT22;724;49.910;12.530;2023-04-24T09:28:58;11.90;99.90
1461;DHT22;724;49.910;12.530;2023-04-24T09:31:27;11.60;87.70
1461;DHT22;724;49.910;12.530;2023-04-24T09:33:54;11.80;10.90
1461;DHT22;724;49.910;12.530;2023-04-24T09:36:27;11.90;2.10
1461;DHT22;724;49.910;12.530;2023-04-24T09:38:59;12.00;1.00
1461;DHT22;724;49.910;12.530;2023-04-24T09:41:27;11.60;1.00
1461;DHT22;724;49.910;12.530;2023-04-24T09:43:54;12.00;1.00
1461;DHT22;724;49.910;12.530;2023-04-24T09:46:29;12.10;1.00
1461;DHT22;724;49.910;12.530;2023-04-24T09:48:57;12.20;1.00
1461;DHT22;724;49.910;12.530;2023-04-24T09:51:34;12.30;1.00
1461;DHT22;724;49.910;12.530;2023-04-24T09:54:03;12.70;1.00
1461;DHT22;724;49.910;12.530;2023-04-24T09:56:33;12.90;1.00
1461;DHT22;724;49.910;12.530;2023-04-24T09:59:07;12.70;1.00
1461;DHT22;724;49.910;12.530;2023-04-24T10:01:34;12.10;1.00
1461;DHT22;724;49.910;12.530;2023-04-24T10:04:01;11.80;1.00
1461;DHT22;724;49.910;12.530;2023-04-24T10:06:33;11.50;1.00
1461;DHT22;724;49.910;12.530;2023-04-24T10:09:00;10.80;1.00
1461;DHT22;724;49.910;12.530;2023-04-24T10:11:28;11.20;1.00
1461;DHT22;724;49.910;12.530;2023-04-24T10:13:56;11.50;1.00
1461;DHT22;724;49.910;12.530;2023-04-24T10:16:24;11.50;1.00
1461;DHT22;724;49.910;12.530;2023-04-24T10:18:52;11.70;1.00
1461;DHT22;724;49.910;12.530;2023-04-24T10:21:19;13.10;1.00
1461;DHT22;724;49.910;12.530;2023-04-24T10:23:48;13.30;1.00
1461;DHT22;724;49.910;12.530;2023-04-24T10:26:16;12.40;1.00
1461;DHT22;724;49.910;12.530;2023-04-24T10:28:47;12.20;1.00
1461;DHT22;724;49.910;12.530;2023-04-24T10:31:14;12.80;1.00
1461;DHT22;724;49.910;12.530;2023-04-24T10:33:42;12.70;1.00
1461;DHT22;724;49.910;12.530;2023-04-24T10:36:10;11.50;1.00
1461;DHT22;724;49.910;12.530;2023-04-24T10:38:39;11.60;1.00
1461;DHT22;724;49.910;12.530;2023-04-24T10:41:09;11.50;1.00
1461;DHT22;724;49.910;12.530;2023-04-24T10:43:41;11.80;1.00
1461;DHT22;724;49.910;12.530;2023-04-24T10:46:10;11.90;1.00
1461;DHT22;724;49.910;12.530;2023-04-24T10:48:42;12.40;1.00
1461;DHT22;724;49.910;12.530;2023-04-24T10:51:11;12.60;1.00
1461;DHT22;724;49.910;12.530;2023-04-24T10:53:38;13.70;1.00
1461;DHT22;724;49.910;12.530;2023-04-24T10:56:07;13.50;1.00
1461;DHT22;724;49.910;12.530;2023-04-24T10:58:40;12.80;99.90
1461;DHT22;724;49.910;12.530;2023-04-24T11:01:23;12.30;99.90
1461;DHT22;724;49.910;12.530;2023-04-24T11:03:55;12.30;99.90
1461;DHT22;724;49.910;12.530;2023-04-24T11:06:28;11.70;99.90
1461;DHT22;724;49.910;12.530;2023-04-24T11:09:02;11.50;99.90
1461;DHT22;724;49.910;12.530;2023-04-24T11:11:29;11.50;99.90
1461;DHT22;724;49.910;12.530;2023-04-24T11:14:04;11.80;99.90
1461;DHT22;724;49.910;12.530;2023-04-24T11:16:35;12.00;99.90
1461;DHT22;724;49.910;12.530;2023-04-24T11:19:05;12.40;99.90
1461;DHT22;724;49.910;12.530;2023-04-24T11:21:39;12.40;99.90
1461;DHT22;724;49.910;12.530;2023-04-24T11:24:33;12.10;99.90
1461;DHT22;724;49.910;12.530;2023-04-24T11:27:11;12.30;99.90
1461;DHT22;724;49.910;12.530;2023-04-24T11:29:41;11.80;99.90
1461;DHT22;724;49.910;12.530;2023-04-24T11:32:17;11.40;99.90
1461;DHT22;724;49.910;12.530;2023-04-24T11:34:46;11.00;99.90
1461;DHT22;724;49.910;12.530;2023-04-24T11:37:13;11.40;99.90
1461;DHT22;724;49.910;12.530;2023-04-24T11:39:40;11.60;99.90
1461;DHT22;724;49.910;12.530;2023-04-24T11:42:07;11.50;99.90
1461;DHT22;724;49.910;12.530;2023-04-24T11:44:35;11.40;99.90
1461;DHT22;724;49.910;12.530;2023-04-24T11:47:03;12.00;99.90
1461;DHT22;724;49.910;12.530;2023-04-24T11:49:31;12.20;99.90
1461;DHT22;724;49.910;12.530;2023-04-24T11:51:59;12.20;99.90
1461;DHT22;724;49.910;12.530;2023-04-24T11:54:26;12.50;99.90
1461;DHT22;724;49.910;12.530;2023-04-24T11:56:52;11.90;99.90
1461;DHT22;724;49.910;12.530;2023-04-24T11:59:19;11.80;99.90
1461;DHT22;724;49.910;12.530;2023-04-24T12:01:46;11.70;99.90
1461;DHT22;724;49.910;12.530;2023-04-24T12:04:15;11.50;99.90
1461;DHT22;724;49.910;12.530;2023-04-24T12:07:01;11.60;99.90
1461;DHT22;724;49.910;12.530;2023-04-24T12:09:28;11.50;99.90
1461;DHT22;724;49.910;12.530;2023-04-24T12:11:56;11.20;99.90
1461;DHT22;724;49.910;12.530;2023-04-24T12:14:23;10.70;99.90
1461;DHT22;724;49.910;12.530;2023-04-24T12:16:51;11.10;99.90
1461;DHT22;724;49.910;12.530;2023-04-24T12:19:20;11.20;99.90
1461;DHT22;724;49.910;12.530;2023-04-24T12:22:00;11.40;99.90
1461;DHT22;724;49.910;12.530;2023-04-24T12:24:27;11.60;99.90
1461;DHT22;724;49.910;12.530;2023-04-24T12:26:54;11.20;99.90
1461;DHT22;724;49.910;12.530;2023-04-24T12:29:21;11.40;99.90
1461;DHT22;724;49.910;12.530;2023-04-24T12:31:49;11.80;99.90
1461;DHT22;724;49.910;12.530;2023-04-24T12:34:19;11.50;99.90
1461;DHT22;724;49.910;12.530;2023-04-24T12:36:46;11.50;99.90
1461;DHT22;724;49.910;12.530;2023-04-24T12:39:18;11.10;99.90
1461;DHT22;724;49.910;12.530;2023-04-24T12:41:53;11.40;99.90
1461;DHT22;724;49.910;12.530;2023-04-24T12:44:29;11.60;99.90
1461;DHT22;724;49.910;12.530;2023-04-24T12:46:55;11.50;99.90
1461;DHT22;724;49.910;12.530;2023-04-24T12:49:22;11.70;99.90
1461;DHT22;724;49.910;12.530;2023-04-24T12:51:49;11.70;99.90
1461;DHT22;724;49.910;12.530;2023-04-24T12:54:17;11.40;99.90
1461;DHT22;724;49.910;12.530;2023-04-24T12:56:44;11.60;99.90
1461;DHT22;724;49.910;12.530;2023-04-24T12:59:11;11.90;99.90
1461;DHT22;724;49.910;12.530;2023-04-24T13:01:38;11.90;99.90
1461;DHT22;724;49.910;12.530;2023-04-24T13:04:05;11.90;99.90
1461;DHT22;724;49.910;12.530;2023-04-24T13:06:32;11.70;99.90
1461;DHT22;724;49.910;12.530;2023-04-24T13:08:59;11.60;99.90
1461;DHT22;724;49.910;12.530;2023-04-24T13:11:27;12.20;99.90
1461;DHT22;724;49.910;12.530;2023-04-24T13:13:54;12.10;99.90
1461;DHT22;724;49.910;12.530;2023-04-24T13:16:21;12.80;99.90
1461;DHT22;724;49.910;12.530;2023-04-24T13:18:48;12.20;99.90
1461;DHT22;724;49.910;12.530;2023-04-24T13:21:18;12.00;99.90
1461;DHT22;724;49.910;12.530;2023-04-24T13:23:45;12.20;99.90
1461;DHT22;724;49.910;12.530;2023-04-24T13:26:12;12.10;99.90
1461;DHT22;724;49.910;12.530;2023-04-24T13:28:40;11.70;99.90
1461;DHT22;724;49.910;12.530;2023-04-24T13:31:07;11.30;99.90
1461;DHT22;724;49.910;12.530;2023-04-24T13:33:33;11.20;99.90
1461;DHT22;724;49.910;12.530;2023-04-24T13:36:00;11.50;99.90
1461;DHT22;724;49.910;12.530;2023-04-24T13:38:27;11.30;99.90
1461;DHT22;724;49.910;12.530;2023-04-24T13:40:54;11.40;99.90
1461;DHT22;724;49.910;12.530;2023-04-24T13:43:21;11.40;99.90
1461;DHT22;724;49.910;12.530;2023-04-24T13:45:49;11.20;99.90
1461;DHT22;724;49.910;12.530;2023-04-24T13:48:16;11.10;99.90
1461;DHT22;724;49.910;12.530;2023-04-24T13:50:43;11.20;99.90
1461;DHT22;724;49.910;12.530;2023-04-24T13:53:13;10.90;99.90
1461;DHT22;724;49.910;12.530;2023-04-24T13:55:40;11.10;99.90
1461;DHT22;724;49.910;12.530;2023-04-24T13:58:07;11.60;99.90
1461;DHT22;724;49.910;12.530;2023-04-24T14:00:34;12.00;99.90
1461;DHT22;724;49.910;12.530;2023-04-24T14:03:02;11.60;99.90
1461;DHT22;724;49.910;12.530;2023-04-24T14:05:29;11.90;99.90
1461;DHT22;724;49.910;12.530;2023-04-24T14:07:55;11.80;99.90
1461;DHT22;724;49.910;12.530;2023-04-24T14:10:22;11.80;99.90
1461;DHT22;724;49.910;12.530;2023-04-24T14:12:49;11.40;99.90
1461;DHT22;724;49.910;12.530;2023-04-24T14:15:17;11.20;99.90
1461;DHT22;724;49.910;12.530;2023-04-24T14:17:44;11.20;99.90
1461;DHT22;724;49.910;12.530;2023-04-24T14:20:12;10.90;99.90
1461;DHT22;724;49.910;12.530;2023-04-24T14:22:39;10.80;99.90
1461;DHT22;724;49.910;12.530;2023-04-24T14:25:07;10.70;99.90
1461;DHT22;724;49.910;12.530;2023-04-24T14:27:34;10.50;99.90
1461;DHT22;724;49.910;12.530;2023-04-24T14:30:01;10.30;99.90
1461;DHT22;724;49.910;12.530;2023-04-24T14:32:28;10.30;99.90
1461;DHT22;724;49.910;12.530;2023-04-24T14:34:55;10.10;99.90
1461;DHT22;724;49.910;12.530;2023-04-24T14:37:23;10.00;99.90
1461;DHT22;724;49.910;12.530;2023-04-24T14:39:50;9.90;99.90
1461;DHT22;724;49.910;12.530;2023-04-24T14:42:16;10.10;99.90
1461;DHT22;724;49.910;12.530;2023-04-24T14:44:43;10.40;99.90
1461;DHT22;724;49.910;12.530;2023-04-24T14:47:10;10.50;99.90
1461;DHT22;724;49.910;12.530;2023-04-24T14:49:38;10.50;99.90
1461;DHT22;724;49.910;12.530;2023-04-24T14:52:04;10.70;99.90
1461;DHT22;724;49.910;12.530;2023-04-24T14:54:33;10.70;99.90
1461;DHT22;724;49.910;12.530;2023-04-24T14:56:59;10.50;99.90
1461;DHT22;724;49.910;12.530;2023-04-24T14:59:27;10.90;99.90
1461;DHT22;724;49.910;12.530;2023-04-24T15:01:54;10.90;99.90
1461;DHT22;724;49.910;12.530;2023-04-24T15:04:23;10.50;99.90
1461;DHT22;724;49.910;12.530;2023-04-24T15:06:50;10.20;99.90
1461;DHT22;724;49.910;12.530;2023-04-24T15:09:19;10.10;99.90
1461;DHT22;724;49.910;12.530;2023-04-24T15:11:47;10.30;99.90
1461;DHT22;724;49.910;12.530;2023-04-24T15:14:14;10.40;99.90
1461;DHT22;724;49.910;12.530;2023-04-24T15:16:41;10.50;99.90
1461;DHT22;724;49.910;12.530;2023-04-24T15:19:08;10.70;99.90
1461;DHT22;724;49.910;12.530;2023-04-24T15:21:35;10.60;99.90
1461;DHT22;724;49.910;12.530;2023-04-24T15:24:02;10.60;99.90
1461;DHT22;724;49.910;12.530;2023-04-24T15:26:29;10.50;99.90
1461;DHT22;724;49.910;12.530;2023-04-24T15:28:57;10.10;99.90
1461;DHT22;724;49.910;12.530;2023-04-24T15:31:24;10.10;99.90
1461;DHT22;724;49.910;12.530;2023-04-24T15:33:50;10.10;99.90
1461;DHT22;724;49.910;12.530;2023-04-24T15:36:17;10.20;99.90
1461;DHT22;724;49.910;12.530;2023-04-24T15:38:45;10.00;99.90
1461;DHT22;724;49.910;12.530;2023-04-24T15:41:12;9.90;99.90
1461;DHT22;724;49.910;12.530;2023-04-24T15:43:38;10.00;99.90
1461;DHT22;724;49.910;12.530;2023-04-24T15:46:08;10.00;99.90
1461;DHT22;724;49.910;12.530;2023-04-24T15:48:36;9.90;99.90
1461;DHT22;724;49.910;12.530;2023-04-24T15:51:04;9.90;99.90
1461;DHT22;724;49.910;12.530;2023-04-24T15:53:31;9.80;99.90
1461;DHT22;724;49.910;12.530;2023-04-24T15:55:57;9.60;99.90
1461;DHT22;724;49.910;12.530;2023-04-24T15:58:25;9.50;99.90
1461;DHT22;724;49.910;12.530;2023-04-24T16:00:51;9.50;99.90
1461;DHT22;724;49.910;12.530;2023-04-24T16:03:20;9.60;99.90
1461;DHT22;724;49.910;12.530;2023-04-24T16:05:47;9.50;99.90
1461;DHT22;724;49.910;12.530;2023-04-24T16:08:14;9.50;99.90
1461;DHT22;724;49.910;12.530;2023-04-24T16:10:42;9.50;99.90
1461;DHT22;724;49.910;12.530;2023-04-24T16:13:11;9.40;99.90
1461;DHT22;724;49.910;12.530;2023-04-24T16:15:38;9.30;99.90
1461;DHT22;724;49.910;12.530;2023-04-24T16:18:05;9.30;99.90